x

San Clemente Basin - 27nm Se Of San Clemente Is, Ca (46086) Wave Buoy

10:50am - Tue 21st Oct 2014 All times are PDT. -7 hours from GMT.

  • Sig Wave height 8.2ft
  • Swell Direction
  • Peak Period 17s
  • Average Period 9s
  • Wind
    4mph, 7mph gusts
  • Sea Temp 71°f
  • Air Temp 68°f
  • Sea Pressure 1013.1mb
  • San Clemente Basin - 27nm Se Of San Clemente Is, Ca
  • San Clemente Basin - 27nm Se Of San Clemente Is, Ca

More Historic Weather Station data

Upgrade to MSW Pro to gain access to the past 30 days of data for over 8000 Wavebouys and Weather Stations around the globe.

Join Pro

Comparision Forecast

View Surf forecast
   
Tue 10/21 10:50am 8ft 17s 9s 4 7 mph 1013.1mb 71f 68f
9:50am 9ft 16s 10s 2 7 mph 1012.9mb 71f 68f
8:50am 8.5ft 16s 10s  -  2 mph 1012.9mb 71f 69f
7:50am 8ft 16s 10s 2 4 mph 1012.2mb 71f 67f
6:50am 7.5ft 15s 9s 7 13 mph 1012mb 71f 68f
5:50am 6.5ft 16s 8s 7 11 mph 1012.1mb 71f 68f
4:50am 7.5ft 17s 9s 4
mph
1011.8mb 71f 68f
3:50am 7ft 17s 9s 4 7 mph 1012.1mb 71f 68f
2:50am 6ft 16s 8s 9 13 mph 1012.5mb 71f 68f
1:50am 5.5ft 16s 7s 11 13 mph 1012.5mb 71f 68f
12:50am 5ft 17s 7s 9 11 mph 1012.8mb 71f 69f
Mon 10/20 11:50pm 5ft 17s 6s 9 13 mph 1012.9mb 71f 68f
10:50pm 5ft 17s 7s 11 13 mph 1013.1mb 71f 68f
9:50pm 4.5ft 17s 6s 13 18 mph 1012.8mb 71f 68f
8:50pm 4.5ft 17s 6s 16 18 mph 1012.5mb 71f 68f
7:50pm 4.5ft 17s 6s 18 20 mph 1012.3mb 71f 68f
6:50pm 4.5ft 11s 6s 16 20 mph 1012.1mb 71f 68f
5:50pm 4.5ft 10s 6s 16 18 mph 1011.6mb 71f 68f
4:50pm 4.5ft 10s 6s 13 18 mph 1011.8mb 71f 69f
3:50pm 4.5ft 10s 7s 13 16 mph 1012.1mb 71f 68f
2:50pm 4.5ft 10s 7s 11 16 mph 1012.4mb 71f 68f
1:50pm 5ft 11s 7s 11 16 mph 1012.8mb 71f 68f
12:50pm 4.5ft 11s 7s 9 13 mph 1013.6mb 71f 68f
11:50am 4.5ft 10s 7s 7 11 mph 1014mb 71f 68f
10:50am 4.5ft 11s 7s 7 9 mph 1014.4mb 71f 68f
9:50am 5ft 11s 7s 9 11 mph 1014.4mb 71f 68f
8:50am 4.5ft 10s 7s 9 13 mph 1014mb 71f 68f
7:50am 4.5ft 11s 6s 4 7 mph 1013.2mb 71f 67f
6:50am 4.5ft 10s 6s 13 16 mph 1012.6mb 71f 68f
5:50am 4.5ft 11s 7s 13 16 mph 1012.5mb 71f 67f
4:50am 4.5ft 11s 7s 16 18 mph 1012mb 71f 68f
3:50am 4.5ft 11s 7s 9 11 mph 1012mb 71f 68f
2:50am 5ft 11s 7s 9 13 mph 1012.1mb 71f 68f
1:50am 5ft 11s 7s 7 9 mph 1012.3mb 71f 68f
12:50am 5ft 11s 7s 11 13 mph 1012.2mb 71f 68f
Sun 10/19 11:50pm 4.5ft 9s 7s 11 13 mph 1012.2mb 71f 68f
10:50pm 4.5ft 11s 7s 9 11 mph 1012.2mb 71f 68f
9:50pm 5ft 11s  -  11 13 mph 1011.9mb 71f 68f
8:50pm 4.5ft 11s 7s 11 13 mph 1011.7mb 71f 68f
7:50pm 5ft 12s 7s 11 13 mph 1011.4mb 71f 68f
6:50pm 5ft 10s 7s 9 13 mph 1011.3mb 71f 68f
5:50pm 5ft 12s 7s 16 18 mph 1010.8mb 71f 68f
4:50pm 5.5ft 11s 8s 16 18 mph 1010.7mb 71f 68f
3:50pm 5.5ft 11s 7s 13 16 mph 1010.9mb 71f 68f
2:50pm 6ft 11s 8s 16 18 mph 1011.3mb 71f 68f
1:50pm 6ft 12s 8s 13 18 mph 1011.9mb 71f 68f
12:50pm 7ft 11s 9s 13 16 mph 1012.4mb 71f 68f
11:50am 6ft 11s 8s 9 13 mph 1013.1mb 71f 69f
10:50am 6ft 12s 9s 7 9 mph 1013.3mb 71f 69f
9:50am 5.5ft 11s 8s 7 9 mph 1013.3mb 71f 69f
8:50am 5ft 11s 8s 7 9 mph 1012.9mb 71f 68f
7:50am 5ft 12s 8s 9
mph
1012.2mb 71f 69f
6:50am 5.5ft 12s 8s 7 9 mph 1011.8mb 71f 68f
5:50am 5.5ft 12s 8s 9 11 mph 1011.5mb 71f 68f
4:50am 5ft 11s 8s 9 11 mph 1011.1mb 71f 68f
3:50am 5ft 12s 8s 7 9 mph 1011mb 71f 68f
2:50am 4.5ft 13s 7s 9 11 mph 1011.3mb 71f 68f
1:50am 5ft 11s 7s 9 11 mph 1011.7mb 71f 68f
12:50am 6ft 11s 8s 11 13 mph 1011.6mb 71f 68f
Sat 10/18 11:50pm 5.5ft 12s 7s 11 13 mph 1011.6mb 71f 68f
10:50pm 6ft 12s 7s 11
mph
1012.1mb 71f 68f
9:50pm 5.5ft 12s 7s 11 13 mph 1012.1mb 71f 68f
8:50pm 5.5ft 11s 7s 11 16 mph 1011.8mb 71f 68f
7:50pm 5.5ft 12s 7s 13 18 mph 1011.3mb 71f 69f
6:50pm 6ft 11s 7s 13 16 mph 1011mb 71f 69f
5:50pm 6ft 12s 7s 16 20 mph 1010.7mb 71f 69f
4:50pm 4.5ft 12s 6s 18 20 mph 1010.7mb 71f 69f
3:50pm 4.5ft 12s 6s 16 18 mph 1011.2mb 71f 69f
2:50pm 4ft 11s 6s 16 18 mph 1011.4mb 71f 69f
1:50pm 3.5ft 14s 5s 16 18 mph 1012mb 71f 69f
12:50pm 3.5ft 14s 6s 13 16 mph 1012.9mb 71f 69f
11:50am 3.5ft 15s 6s 13 16 mph 1013.3mb 71f 69f
10:50am 3.5ft 13s 5s 13
mph
1013.6mb 71f 69f
9:50am 3.5ft 14s 6s 11 16 mph 1013.8mb 71f 68f
8:50am 3.5ft 14s 6s 11 16 mph 1013.8mb 71f 68f
7:50am 3.5ft 13s 6s 13 16 mph 1013.5mb 71f 68f
6:50am 3.5ft 11s 6s 11 13 mph 1013.2mb 71f 67f
5:50am 4ft 11s 6s 11 13 mph 1013.2mb 70f 67f
4:50am 4ft 13s 6s 11 13 mph 1013mb 71f 67f
3:50am 4ft 11s 6s 11 16 mph 1013mb 71f 67f
2:50am 4.5ft 10s 6s 13 16 mph 1013.4mb 71f 67f
1:50am 4ft 11s 6s 16 18 mph 1013.9mb 71f 68f
12:50am 4ft 13s 6s 13 16 mph 1014mb 71f 67f
Fri 10/17 11:50pm 4ft 12s 6s 13 18 mph 1014.3mb 71f 68f
10:50pm 4.5ft 13s 6s 11 13 mph 1014.5mb 71f 68f
9:50pm 4.5ft 14s 6s 13 16 mph 1014.6mb 71f 68f
8:50pm 4.5ft 12s 6s 13 18 mph 1014.4mb 71f 68f
7:50pm 4.5ft 14s 6s 11 16 mph 1014.1mb 71f 68f